MNMG

Details ICAO MNMG (MGA)
Name Managua Intl
Region Nicaragua
Timezone America/Managua (UTC-6.0)
Plans Departing 83
Arriving 82
Stats Elevation 194 ft / 59 m (AMSL)
Location 12.141493° -86.168178°
Runways 1
Magnetic Variation 0.947° W
Sunrise 2017-12-17 11:59:53 UTC / 2017-12-17 05:59:53 Local
Sunset 2017-12-17 23:24:40 UTC / 2017-12-17 17:24:40 Local
Advertisement - Login to hide

Runways

ID Width Length Bearing (true) Bearing (mag) Surface Threshold Offset Overrun Length
09 148 ft / 45 m 8,008 ft / 2,441 m 96.54° 97.49° Asphalt 0 ft / 0 m 100 ft / 30 m
27 148 ft / 45 m 8,008 ft / 2,441 m 276.55° 277.50° Asphalt 0 ft / 0 m 100 ft / 30 m

Approach Navaids

Runway Type Ident Frequency Range Bearing (true) Bearing (mag) Slope Elevation
09 Localiser IMGA 109.10 MHz 18 nm / 33 km 96.37° 97.32° - 194 ft / 59 m (AMSL)
09 Glidescope IMGA 109.10 MHz 10 nm / 19 km 96.55° 97.49° 3.10° 194 ft / 59 m (AMSL)
09 DME IMGA 109.10 MHz 18 nm / 33 km - - - 194 ft / 59 m (AMSL)

Map

Weather


0- 5 10 15 20 25 30 35+ Temperature / ° C

Clouds and Precipitation
Forecast for 2017-12-18 00:00 UTC. Updated 9 minutes ago

Ground ~20,000 ft ~40,000 ft Winds

METAR

MNMG 172300Z 08006KT 9999 FEW022 30/21 Q1009 A2981 NOSIG

TAF

Not found

Frequencies

Ground 121.90 MHz GND
Approach 119.40 MHz APP
Tower 118.10 MHz TWR
Warning: Do not use this data for real-world aviation or navigation. No guarantee of current accuracy is given.